sensor_id;sensor_type;location;lat;lon;timestamp;pressure;altitude;pressure_sealevel;temperature;humidity
75640;BME280;64233;51.486;6.332;2023-03-24T00:00:39;99711.94;;;10.77;100.00
75640;BME280;64233;51.486;6.332;2023-03-24T00:03:04;99711.44;;;10.70;100.00
75640;BME280;64233;51.486;6.332;2023-03-24T00:05:29;99705.28;;;10.69;100.00
75640;BME280;64233;51.486;6.332;2023-03-24T00:07:55;99704.44;;;10.74;100.00
75640;BME280;64233;51.486;6.332;2023-03-24T00:10:21;99696.31;;;10.84;100.00
75640;BME280;64233;51.486;6.332;2023-03-24T00:12:47;99690.47;;;10.77;100.00
75640;BME280;64233;51.486;6.332;2023-03-24T00:15:16;99698.22;;;10.83;100.00
75640;BME280;64233;51.486;6.332;2023-03-24T00:17:43;99691.31;;;11.07;100.00
75640;BME280;64233;51.486;6.332;2023-03-24T00:20:12;99669.66;;;10.98;100.00
75640;BME280;64233;51.486;6.332;2023-03-24T00:22:47;99684.19;;;10.92;100.00
75640;BME280;64233;51.486;6.332;2023-03-24T00:25:20;99678.88;;;10.81;100.00
75640;BME280;64233;51.486;6.332;2023-03-24T00:27:47;99677.78;;;10.88;100.00
75640;BME280;64233;51.486;6.332;2023-03-24T00:30:14;99672.63;;;10.96;100.00
75640;BME280;64233;51.486;6.332;2023-03-24T00:32:40;99664.38;;;10.88;100.00
75640;BME280;64233;51.486;6.332;2023-03-24T00:35:07;99656.81;;;10.90;100.00
75640;BME280;64233;51.486;6.332;2023-03-24T00:37:37;99651.03;;;11.07;100.00
75640;BME280;64233;51.486;6.332;2023-03-24T00:40:08;99651.09;;;11.01;100.00
75640;BME280;64233;51.486;6.332;2023-03-24T00:42:37;99646.28;;;10.98;100.00
75640;BME280;64233;51.486;6.332;2023-03-24T00:45:04;99647.09;;;10.99;100.00
75640;BME280;64233;51.486;6.332;2023-03-24T00:47:30;99642.75;;;11.03;100.00
75640;BME280;64233;51.486;6.332;2023-03-24T00:50:01;99644.16;;;10.95;100.00
75640;BME280;64233;51.486;6.332;2023-03-24T00:52:26;99623.69;;;11.05;100.00
75640;BME280;64233;51.486;6.332;2023-03-24T00:54:58;99634.47;;;10.99;100.00
75640;BME280;64233;51.486;6.332;2023-03-24T00:57:26;99635.41;;;11.14;100.00
75640;BME280;64233;51.486;6.332;2023-03-24T00:59:54;99627.91;;;11.11;100.00
75640;BME280;64233;51.486;6.332;2023-03-24T01:02:23;99625.75;;;11.13;100.00
75640;BME280;64233;51.486;6.332;2023-03-24T01:04:55;99606.75;;;11.33;100.00
75640;BME280;64233;51.486;6.332;2023-03-24T01:07:26;99618.56;;;11.32;100.00
75640;BME280;64233;51.486;6.332;2023-03-24T01:09:53;99615.78;;;11.18;100.00
75640;BME280;64233;51.486;6.332;2023-03-24T01:12:34;99615.09;;;11.32;100.00
75640;BME280;64233;51.486;6.332;2023-03-24T01:15:03;99616.53;;;11.24;100.00
75640;BME280;64233;51.486;6.332;2023-03-24T01:17:30;99600.00;;;11.12;100.00
75640;BME280;64233;51.486;6.332;2023-03-24T01:19:56;99597.34;;;11.36;100.00
75640;BME280;64233;51.486;6.332;2023-03-24T01:22:25;99578.06;;;11.53;100.00
75640;BME280;64233;51.486;6.332;2023-03-24T01:24:50;99578.41;;;11.46;100.00
75640;BME280;64233;51.486;6.332;2023-03-24T01:27:17;99587.34;;;11.42;100.00
75640;BME280;64233;51.486;6.332;2023-03-24T01:29:42;99580.00;;;11.47;100.00
75640;BME280;64233;51.486;6.332;2023-03-24T01:32:07;99581.03;;;11.51;100.00
75640;BME280;64233;51.486;6.332;2023-03-24T01:34:33;99573.03;;;11.46;100.00
75640;BME280;64233;51.486;6.332;2023-03-24T01:37:00;99572.84;;;11.62;100.00
75640;BME280;64233;51.486;6.332;2023-03-24T01:39:26;99574.69;;;11.42;100.00
75640;BME280;64233;51.486;6.332;2023-03-24T01:41:51;99550.91;;;11.54;100.00
75640;BME280;64233;51.486;6.332;2023-03-24T01:46:48;99549.47;;;11.62;100.00
75640;BME280;64233;51.486;6.332;2023-03-24T01:49:14;99559.66;;;11.65;100.00
75640;BME280;64233;51.486;6.332;2023-03-24T01:51:43;99546.88;;;11.76;100.00
75640;BME280;64233;51.486;6.332;2023-03-24T01:54:19;99559.06;;;11.68;100.00
75640;BME280;64233;51.486;6.332;2023-03-24T01:56:50;99543.25;;;11.67;100.00
75640;BME280;64233;51.486;6.332;2023-03-24T01:59:21;99542.78;;;11.60;100.00
75640;BME280;64233;51.486;6.332;2023-03-24T02:01:48;99536.88;;;11.58;100.00
75640;BME280;64233;51.486;6.332;2023-03-24T02:04:14;99532.16;;;11.49;100.00
75640;BME280;64233;51.486;6.332;2023-03-24T02:06:41;99527.13;;;11.43;100.00
75640;BME280;64233;51.486;6.332;2023-03-24T02:09:09;99513.63;;;11.48;100.00
75640;BME280;64233;51.486;6.332;2023-03-24T02:11:36;99517.31;;;11.33;100.00
75640;BME280;64233;51.486;6.332;2023-03-24T02:14:02;99504.38;;;11.35;100.00
75640;BME280;64233;51.486;6.332;2023-03-24T02:27:28;99486.25;;;11.46;100.00
75640;BME280;64233;51.486;6.332;2023-03-24T02:30:14;99507.47;;;11.47;100.00
75640;BME280;64233;51.486;6.332;2023-03-24T02:35:51;99508.22;;;11.29;100.00
75640;BME280;64233;51.486;6.332;2023-03-24T02:44:18;99462.25;;;11.93;100.00
75640;BME280;64233;51.486;6.332;2023-03-24T02:46:55;99488.81;;;11.99;100.00
75640;BME280;64233;51.486;6.332;2023-03-24T02:49:34;99498.56;;;11.90;100.00
75640;BME280;64233;51.486;6.332;2023-03-24T02:52:15;99482.13;;;11.92;100.00
75640;BME280;64233;51.486;6.332;2023-03-24T03:03:14;99468.50;;;11.88;100.00
75640;BME280;64233;51.486;6.332;2023-03-24T03:05:46;99473.78;;;11.93;100.00
75640;BME280;64233;51.486;6.332;2023-03-24T03:08:15;99476.13;;;12.00;100.00
75640;BME280;64233;51.486;6.332;2023-03-24T03:10:45;99470.97;;;12.03;100.00
75640;BME280;64233;51.486;6.332;2023-03-24T03:15:52;99464.38;;;12.29;100.00
75640;BME280;64233;51.486;6.332;2023-03-24T03:18:25;99478.91;;;12.14;100.00
75640;BME280;64233;51.486;6.332;2023-03-24T03:20:57;99464.44;;;12.10;100.00
75640;BME280;64233;51.486;6.332;2023-03-24T03:23:38;99463.66;;;12.23;100.00
75640;BME280;64233;51.486;6.332;2023-03-24T03:26:10;99472.75;;;12.27;100.00
75640;BME280;64233;51.486;6.332;2023-03-24T03:28:39;99472.97;;;12.31;100.00
75640;BME280;64233;51.486;6.332;2023-03-24T03:31:10;99475.31;;;12.18;100.00
75640;BME280;64233;51.486;6.332;2023-03-24T03:33:45;99450.88;;;12.34;100.00
75640;BME280;64233;51.486;6.332;2023-03-24T03:36:23;99471.56;;;12.19;100.00
75640;BME280;64233;51.486;6.332;2023-03-24T03:41:53;99482.69;;;11.94;100.00
75640;BME280;64233;51.486;6.332;2023-03-24T03:44:18;99479.75;;;12.09;100.00
75640;BME280;64233;51.486;6.332;2023-03-24T03:46:44;99495.56;;;11.97;100.00
75640;BME280;64233;51.486;6.332;2023-03-24T03:49:09;99493.19;;;11.90;100.00
75640;BME280;64233;51.486;6.332;2023-03-24T03:51:35;99489.19;;;11.87;100.00
75640;BME280;64233;51.486;6.332;2023-03-24T03:54:11;99489.47;;;11.86;100.00
75640;BME280;64233;51.486;6.332;2023-03-24T03:56:38;99490.31;;;11.86;100.00
75640;BME280;64233;51.486;6.332;2023-03-24T03:59:05;99498.72;;;11.80;100.00
75640;BME280;64233;51.486;6.332;2023-03-24T04:01:32;99484.63;;;11.88;100.00
75640;BME280;64233;51.486;6.332;2023-03-24T04:12:18;99523.59;;;11.66;100.00
75640;BME280;64233;51.486;6.332;2023-03-24T04:15:12;99540.59;;;11.62;100.00
75640;BME280;64233;51.486;6.332;2023-03-24T04:23:44;99575.94;;;11.26;100.00
75640;BME280;64233;51.486;6.332;2023-03-24T04:26:26;99587.31;;;11.17;100.00
75640;BME280;64233;51.486;6.332;2023-03-24T04:29:19;99594.31;;;11.13;100.00
75640;BME280;64233;51.486;6.332;2023-03-24T04:32:00;99587.81;;;11.19;100.00
75640;BME280;64233;51.486;6.332;2023-03-24T04:34:32;99612.69;;;11.01;100.00
75640;BME280;64233;51.486;6.332;2023-03-24T04:37:05;99624.31;;;10.91;100.00
75640;BME280;64233;51.486;6.332;2023-03-24T04:39:35;99646.13;;;10.84;100.00
75640;BME280;64233;51.486;6.332;2023-03-24T04:42:06;99642.72;;;10.68;100.00
75640;BME280;64233;51.486;6.332;2023-03-24T04:44:32;99652.41;;;10.64;100.00
75640;BME280;64233;51.486;6.332;2023-03-24T04:46:59;99658.16;;;10.47;100.00
75640;BME280;64233;51.486;6.332;2023-03-24T04:49:26;99665.75;;;10.35;100.00
75640;BME280;64233;51.486;6.332;2023-03-24T04:51:53;99664.13;;;10.29;100.00
75640;BME280;64233;51.486;6.332;2023-03-24T04:54:19;99657.47;;;10.21;100.00
75640;BME280;64233;51.486;6.332;2023-03-24T04:56:48;99669.81;;;10.17;100.00
75640;BME280;64233;51.486;6.332;2023-03-24T04:59:28;99686.47;;;10.14;100.00
75640;BME280;64233;51.486;6.332;2023-03-24T05:01:54;99695.63;;;9.97;100.00
75640;BME280;64233;51.486;6.332;2023-03-24T05:04:23;99684.94;;;9.92;100.00
75640;BME280;64233;51.486;6.332;2023-03-24T05:06:48;99709.88;;;9.88;100.00
75640;BME280;64233;51.486;6.332;2023-03-24T05:09:19;99709.34;;;9.80;100.00
75640;BME280;64233;51.486;6.332;2023-03-24T05:11:46;99719.84;;;9.56;100.00
75640;BME280;64233;51.486;6.332;2023-03-24T05:14:11;99720.66;;;9.52;100.00
75640;BME280;64233;51.486;6.332;2023-03-24T05:16:36;99722.25;;;9.47;100.00
75640;BME280;64233;51.486;6.332;2023-03-24T05:19:02;99719.84;;;9.30;100.00
75640;BME280;64233;51.486;6.332;2023-03-24T05:21:30;99732.97;;;9.17;100.00
75640;BME280;64233;51.486;6.332;2023-03-24T05:23:55;99727.09;;;9.15;100.00
75640;BME280;64233;51.486;6.332;2023-03-24T05:26:21;99739.41;;;9.10;100.00
75640;BME280;64233;51.486;6.332;2023-03-24T05:28:46;99726.53;;;9.12;100.00
75640;BME280;64233;51.486;6.332;2023-03-24T05:31:11;99741.00;;;9.11;100.00
75640;BME280;64233;51.486;6.332;2023-03-24T05:33:37;99744.47;;;8.96;100.00
75640;BME280;64233;51.486;6.332;2023-03-24T05:36:02;99748.22;;;9.01;100.00
75640;BME280;64233;51.486;6.332;2023-03-24T05:38:28;99752.72;;;8.90;100.00
75640;BME280;64233;51.486;6.332;2023-03-24T05:41:00;99760.47;;;8.71;100.00
75640;BME280;64233;51.486;6.332;2023-03-24T05:43:25;99766.13;;;8.90;100.00
75640;BME280;64233;51.486;6.332;2023-03-24T05:45:52;99768.75;;;8.74;100.00
75640;BME280;64233;51.486;6.332;2023-03-24T05:48:17;99776.28;;;8.77;100.00
75640;BME280;64233;51.486;6.332;2023-03-24T05:50:42;99776.50;;;8.76;100.00
75640;BME280;64233;51.486;6.332;2023-03-24T05:53:08;99781.88;;;8.71;100.00
75640;BME280;64233;51.486;6.332;2023-03-24T05:55:34;99785.56;;;8.59;100.00
75640;BME280;64233;51.486;6.332;2023-03-24T05:58:00;99785.88;;;8.78;100.00
75640;BME280;64233;51.486;6.332;2023-03-24T06:00:27;99794.72;;;8.74;100.00
75640;BME280;64233;51.486;6.332;2023-03-24T06:02:53;99793.66;;;8.75;100.00
75640;BME280;64233;51.486;6.332;2023-03-24T06:05:18;99794.94;;;8.62;100.00
75640;BME280;64233;51.486;6.332;2023-03-24T06:07:44;99796.56;;;8.68;100.00
75640;BME280;64233;51.486;6.332;2023-03-24T06:10:11;99790.38;;;8.63;100.00
75640;BME280;64233;51.486;6.332;2023-03-24T06:12:39;99805.13;;;8.70;100.00
75640;BME280;64233;51.486;6.332;2023-03-24T06:15:05;99808.59;;;8.66;100.00
75640;BME280;64233;51.486;6.332;2023-03-24T06:17:31;99818.50;;;8.65;100.00
75640;BME280;64233;51.486;6.332;2023-03-24T06:19:56;99809.69;;;8.70;100.00
75640;BME280;64233;51.486;6.332;2023-03-24T06:22:29;99810.03;;;8.89;100.00
75640;BME280;64233;51.486;6.332;2023-03-24T06:24:55;99826.06;;;8.84;100.00
75640;BME280;64233;51.486;6.332;2023-03-24T06:27:23;99819.38;;;8.86;100.00
75640;BME280;64233;51.486;6.332;2023-03-24T06:29:50;99811.06;;;8.83;100.00
75640;BME280;64233;51.486;6.332;2023-03-24T06:32:20;99803.88;;;8.93;100.00
75640;BME280;64233;51.486;6.332;2023-03-24T06:34:45;99821.00;;;8.92;100.00
75640;BME280;64233;51.486;6.332;2023-03-24T06:37:11;99833.38;;;9.09;100.00
75640;BME280;64233;51.486;6.332;2023-03-24T06:39:37;99832.84;;;9.12;100.00
75640;BME280;64233;51.486;6.332;2023-03-24T06:42:03;99842.19;;;9.09;100.00
75640;BME280;64233;51.486;6.332;2023-03-24T06:44:29;99834.16;;;9.09;100.00
75640;BME280;64233;51.486;6.332;2023-03-24T06:46:54;99836.56;;;9.11;100.00
75640;BME280;64233;51.486;6.332;2023-03-24T06:49:20;99836.59;;;9.21;100.00
75640;BME280;64233;51.486;6.332;2023-03-24T06:51:45;99836.31;;;9.18;100.00
75640;BME280;64233;51.486;6.332;2023-03-24T06:54:10;99835.53;;;9.22;100.00
75640;BME280;64233;51.486;6.332;2023-03-24T06:56:36;99820.81;;;9.30;100.00
75640;BME280;64233;51.486;6.332;2023-03-24T06:59:01;99837.94;;;9.34;100.00
75640;BME280;64233;51.486;6.332;2023-03-24T07:01:27;99835.28;;;9.39;100.00
75640;BME280;64233;51.486;6.332;2023-03-24T07:03:52;99839.56;;;9.45;100.00
75640;BME280;64233;51.486;6.332;2023-03-24T07:06:17;99833.97;;;9.47;100.00
75640;BME280;64233;51.486;6.332;2023-03-24T07:08:43;99827.53;;;9.48;100.00
75640;BME280;64233;51.486;6.332;2023-03-24T07:11:09;99829.66;;;9.51;100.00
75640;BME280;64233;51.486;6.332;2023-03-24T07:13:35;99832.09;;;9.58;100.00
75640;BME280;64233;51.486;6.332;2023-03-24T07:16:07;99838.78;;;9.60;100.00
75640;BME280;64233;51.486;6.332;2023-03-24T07:18:39;99830.47;;;9.57;100.00
75640;BME280;64233;51.486;6.332;2023-03-24T07:21:05;99828.09;;;9.60;100.00
75640;BME280;64233;51.486;6.332;2023-03-24T07:23:30;99831.28;;;9.62;100.00
75640;BME280;64233;51.486;6.332;2023-03-24T07:25:56;99835.31;;;9.70;100.00
75640;BME280;64233;51.486;6.332;2023-03-24T07:28:22;99829.69;;;9.67;100.00
75640;BME280;64233;51.486;6.332;2023-03-24T07:30:47;99845.78;;;9.77;100.00
75640;BME280;64233;51.486;6.332;2023-03-24T07:33:12;99840.41;;;9.87;100.00
75640;BME280;64233;51.486;6.332;2023-03-24T07:35:39;99839.31;;;9.93;100.00
75640;BME280;64233;51.486;6.332;2023-03-24T07:38:04;99840.41;;;9.97;100.00
75640;BME280;64233;51.486;6.332;2023-03-24T07:40:30;99854.88;;;10.02;100.00
75640;BME280;64233;51.486;6.332;2023-03-24T07:42:58;99860.78;;;10.04;100.00
75640;BME280;64233;51.486;6.332;2023-03-24T07:45:24;99876.31;;;10.12;100.00
75640;BME280;64233;51.486;6.332;2023-03-24T07:47:50;99873.13;;;10.15;100.00
75640;BME280;64233;51.486;6.332;2023-03-24T07:50:15;99877.13;;;10.17;100.00
75640;BME280;64233;51.486;6.332;2023-03-24T07:52:43;99872.81;;;10.22;100.00
75640;BME280;64233;51.486;6.332;2023-03-24T07:55:11;99872.84;;;10.06;100.00
75640;BME280;64233;51.486;6.332;2023-03-24T07:57:39;99884.63;;;10.26;100.00
75640;BME280;64233;51.486;6.332;2023-03-24T08:00:05;99886.75;;;10.29;100.00
75640;BME280;64233;51.486;6.332;2023-03-24T08:02:46;99888.38;;;10.14;100.00
75640;BME280;64233;51.486;6.332;2023-03-24T08:05:12;99880.59;;;10.08;100.00
75640;BME280;64233;51.486;6.332;2023-03-24T08:07:41;99885.72;;;10.04;100.00
75640;BME280;64233;51.486;6.332;2023-03-24T08:10:10;99889.44;;;10.19;100.00
75640;BME280;64233;51.486;6.332;2023-03-24T08:12:36;99891.59;;;10.27;100.00
75640;BME280;64233;51.486;6.332;2023-03-24T08:15:02;99894.81;;;10.19;100.00
75640;BME280;64233;51.486;6.332;2023-03-24T08:17:28;99910.13;;;10.39;100.00
75640;BME280;64233;51.486;6.332;2023-03-24T08:19:53;99910.38;;;10.37;100.00
75640;BME280;64233;51.486;6.332;2023-03-24T08:22:18;99902.06;;;10.49;100.00
75640;BME280;64233;51.486;6.332;2023-03-24T08:24:44;99908.47;;;10.53;100.00
75640;BME280;64233;51.486;6.332;2023-03-24T08:27:16;99912.47;;;10.71;100.00
75640;BME280;64233;51.486;6.332;2023-03-24T08:29:48;99909.00;;;10.65;100.00
75640;BME280;64233;51.486;6.332;2023-03-24T08:32:13;99922.09;;;10.82;100.00
75640;BME280;64233;51.486;6.332;2023-03-24T08:34:38;99920.19;;;10.93;100.00
75640;BME280;64233;51.486;6.332;2023-03-24T08:37:03;99922.00;;;11.08;100.00
75640;BME280;64233;51.486;6.332;2023-03-24T08:39:29;99922.56;;;11.00;100.00
75640;BME280;64233;51.486;6.332;2023-03-24T08:41:56;99914.84;;;10.88;100.00
75640;BME280;64233;51.486;6.332;2023-03-24T08:44:22;99913.47;;;10.96;100.00
75640;BME280;64233;51.486;6.332;2023-03-24T08:46:47;99923.38;;;11.00;100.00
75640;BME280;64233;51.486;6.332;2023-03-24T08:49:12;99922.56;;;11.00;100.00
75640;BME280;64233;51.486;6.332;2023-03-24T08:51:37;99924.47;;;10.94;100.00
75640;BME280;64233;51.486;6.332;2023-03-24T08:54:03;99920.31;;;11.23;100.00
75640;BME280;64233;51.486;6.332;2023-03-24T08:56:29;99933.75;;;11.23;100.00
75640;BME280;64233;51.486;6.332;2023-03-24T08:58:54;99948.31;;;11.16;100.00
75640;BME280;64233;51.486;6.332;2023-03-24T09:01:20;99942.34;;;11.30;100.00
75640;BME280;64233;51.486;6.332;2023-03-24T09:03:47;99939.72;;;11.09;100.00
75640;BME280;64233;51.486;6.332;2023-03-24T09:06:13;99960.94;;;11.06;100.00
75640;BME280;64233;51.486;6.332;2023-03-24T09:08:38;99952.09;;;11.00;100.00
75640;BME280;64233;51.486;6.332;2023-03-24T09:11:05;99953.75;;;10.91;100.00
75640;BME280;64233;51.486;6.332;2023-03-24T09:13:31;99948.31;;;11.11;100.00
75640;BME280;64233;51.486;6.332;2023-03-24T09:15:59;99943.84;;;10.76;100.00
75640;BME280;64233;51.486;6.332;2023-03-24T09:18:25;99957.00;;;10.88;100.00
75640;BME280;64233;51.486;6.332;2023-03-24T09:20:50;99950.69;;;11.23;100.00
75640;BME280;64233;51.486;6.332;2023-03-24T09:23:17;99957.38;;;11.31;100.00
75640;BME280;64233;51.486;6.332;2023-03-24T09:25:42;99962.31;;;11.68;100.00
75640;BME280;64233;51.486;6.332;2023-03-24T09:28:07;99958.41;;;11.95;100.00
75640;BME280;64233;51.486;6.332;2023-03-24T09:30:33;99956.66;;;11.65;100.00
75640;BME280;64233;51.486;6.332;2023-03-24T09:32:58;99961.63;;;11.42;100.00
75640;BME280;64233;51.486;6.332;2023-03-24T09:35:27;99948.44;;;11.91;100.00
75640;BME280;64233;51.486;6.332;2023-03-24T09:37:55;99956.63;;;12.15;100.00
75640;BME280;64233;51.486;6.332;2023-03-24T09:40:24;99961.31;;;11.49;100.00
75640;BME280;64233;51.486;6.332;2023-03-24T09:42:54;99970.06;;;11.20;100.00
75640;BME280;64233;51.486;6.332;2023-03-24T09:45:22;99955.16;;;11.43;100.00
75640;BME280;64233;51.486;6.332;2023-03-24T09:50:34;99966.00;;;11.23;100.00
75640;BME280;64233;51.486;6.332;2023-03-24T09:53:06;99938.69;;;11.55;100.00
75640;BME280;64233;51.486;6.332;2023-03-24T09:55:33;99949.13;;;11.67;97.82
75640;BME280;64233;51.486;6.332;2023-03-24T09:58:03;99946.00;;;11.49;95.20
75640;BME280;64233;51.486;6.332;2023-03-24T10:00:31;99956.50;;;11.46;95.80
75640;BME280;64233;51.486;6.332;2023-03-24T10:02:59;99967.75;;;11.53;97.08
75640;BME280;64233;51.486;6.332;2023-03-24T10:05:36;99975.66;;;11.79;98.25
75640;BME280;64233;51.486;6.332;2023-03-24T10:08:41;99964.41;;;11.77;96.96
75640;BME280;64233;51.486;6.332;2023-03-24T10:11:30;99968.16;;;11.76;96.78
75640;BME280;64233;51.486;6.332;2023-03-24T10:14:12;99974.44;;;12.11;97.21
75640;BME280;64233;51.486;6.332;2023-03-24T10:16:49;99993.34;;;11.90;93.97
75640;BME280;64233;51.486;6.332;2023-03-24T10:22:05;99996.75;;;11.56;96.07
75640;BME280;64233;51.486;6.332;2023-03-24T10:24:44;100001.31;;;11.61;94.98
75640;BME280;64233;51.486;6.332;2023-03-24T10:27:21;99999.16;;;12.13;95.15
75640;BME280;64233;51.486;6.332;2023-03-24T10:29:53;99999.31;;;12.27;95.30
75640;BME280;64233;51.486;6.332;2023-03-24T10:32:21;100000.84;;;11.93;93.56
75640;BME280;64233;51.486;6.332;2023-03-24T10:34:58;99999.53;;;11.91;96.70
75640;BME280;64233;51.486;6.332;2023-03-24T10:37:26;100003.47;;;11.59;94.35
75640;BME280;64233;51.486;6.332;2023-03-24T10:39:54;100018.97;;;11.77;98.06
75640;BME280;64233;51.486;6.332;2023-03-24T10:42:24;100014.72;;;11.71;98.19
75640;BME280;64233;51.486;6.332;2023-03-24T10:44:51;100009.06;;;11.67;99.52
75640;BME280;64233;51.486;6.332;2023-03-24T10:47:20;100019.47;;;11.84;99.64
75640;BME280;64233;51.486;6.332;2023-03-24T10:50:01;100013.97;;;11.55;96.58
75640;BME280;64233;51.486;6.332;2023-03-24T10:52:37;100027.44;;;11.50;96.50
75640;BME280;64233;51.486;6.332;2023-03-24T10:55:05;100022.88;;;11.45;96.74
75640;BME280;64233;51.486;6.332;2023-03-24T10:57:31;100028.00;;;11.42;98.13
75640;BME280;64233;51.486;6.332;2023-03-24T11:00:00;100028.00;;;11.42;97.68
75640;BME280;64233;51.486;6.332;2023-03-24T11:02:34;100026.09;;;11.42;99.14
75640;BME280;64233;51.486;6.332;2023-03-24T11:05:24;100023.69;;;11.41;98.68
75640;BME280;64233;51.486;6.332;2023-03-24T11:07:56;100033.91;;;11.44;100.00
75640;BME280;64233;51.486;6.332;2023-03-24T11:10:24;100026.41;;;11.35;97.92
75640;BME280;64233;51.486;6.332;2023-03-24T11:15:29;100033.63;;;11.45;99.03
75640;BME280;64233;51.486;6.332;2023-03-24T11:17:59;100029.63;;;11.43;99.04
75640;BME280;64233;51.486;6.332;2023-03-24T11:20:34;100026.09;;;11.47;97.59
75640;BME280;64233;51.486;6.332;2023-03-24T11:23:06;100030.88;;;11.61;97.57
75640;BME280;64233;51.486;6.332;2023-03-24T11:25:36;100024.91;;;11.69;96.48
75640;BME280;64233;51.486;6.332;2023-03-24T11:28:06;100013.88;;;11.70;94.29
75640;BME280;64233;51.486;6.332;2023-03-24T11:30:53;100012.25;;;11.75;95.47
75640;BME280;64233;51.486;6.332;2023-03-24T11:33:31;100023.28;;;11.78;95.35
75640;BME280;64233;51.486;6.332;2023-03-24T11:35:59;100025.69;;;11.75;94.34
75640;BME280;64233;51.486;6.332;2023-03-24T11:38:31;100027.06;;;11.72;93.71
75640;BME280;64233;51.486;6.332;2023-03-24T11:41:01;100034.03;;;11.73;95.56
75640;BME280;64233;51.486;6.332;2023-03-24T11:43:29;100032.69;;;11.81;96.45
75640;BME280;64233;51.486;6.332;2023-03-24T11:46:13;100036.09;;;11.92;96.56
75640;BME280;64233;51.486;6.332;2023-03-24T11:48:54;100022.66;;;11.92;94.23
75640;BME280;64233;51.486;6.332;2023-03-24T11:51:33;100022.63;;;12.02;92.85
75640;BME280;64233;51.486;6.332;2023-03-24T11:54:03;100037.19;;;11.96;94.64
75640;BME280;64233;51.486;6.332;2023-03-24T11:56:50;100028.03;;;11.92;94.48
75640;BME280;64233;51.486;6.332;2023-03-24T12:04:27;100015.78;;;11.75;95.90
75640;BME280;64233;51.486;6.332;2023-03-24T12:10:02;100011.31;;;12.05;94.11
75640;BME280;64233;51.486;6.332;2023-03-24T12:12:57;100019.06;;;12.12;97.39
75640;BME280;64233;51.486;6.332;2023-03-24T12:26:57;99997.72;;;11.81;92.90
75640;BME280;64233;51.486;6.332;2023-03-24T12:32:37;99984.91;;;12.12;91.85
75640;BME280;64233;51.486;6.332;2023-03-24T12:35:33;99980.31;;;12.13;90.10
75640;BME280;64233;51.486;6.332;2023-03-24T12:46:19;99979.00;;;12.45;87.95
75640;BME280;64233;51.486;6.332;2023-03-24T12:49:03;99982.44;;;12.50;86.12
75640;BME280;64233;51.486;6.332;2023-03-24T12:51:42;99970.50;;;12.62;86.37
75640;BME280;64233;51.486;6.332;2023-03-24T12:54:17;99966.81;;;12.52;86.32
75640;BME280;64233;51.486;6.332;2023-03-24T12:56:52;99974.38;;;12.50;88.78
75640;BME280;64233;51.486;6.332;2023-03-24T12:59:28;99979.09;;;12.64;89.74
75640;BME280;64233;51.486;6.332;2023-03-24T13:02:29;99948.75;;;12.53;86.80
75640;BME280;64233;51.486;6.332;2023-03-24T13:05:04;99980.56;;;12.51;89.84
75640;BME280;64233;51.486;6.332;2023-03-24T13:07:33;99981.34;;;12.51;89.08
75640;BME280;64233;51.486;6.332;2023-03-24T13:10:11;99968.88;;;12.31;85.72
75640;BME280;64233;51.486;6.332;2023-03-24T13:13:00;100012.56;;;12.18;91.41
75640;BME280;64233;51.486;6.332;2023-03-24T13:15:37;100032.44;;;10.29;100.00
75640;BME280;64233;51.486;6.332;2023-03-24T13:28:46;100032.47;;;9.51;100.00
75640;BME280;64233;51.486;6.332;2023-03-24T13:31:15;100024.22;;;9.62;100.00
75640;BME280;64233;51.486;6.332;2023-03-24T13:33:41;100020.50;;;9.69;100.00
75640;BME280;64233;51.486;6.332;2023-03-24T13:36:33;100018.81;;;9.52;100.00
75640;BME280;64233;51.486;6.332;2023-03-24T13:39:06;100024.97;;;9.47;100.00
75640;BME280;64233;51.486;6.332;2023-03-24T13:41:36;100027.88;;;9.36;100.00
75640;BME280;64233;51.486;6.332;2023-03-24T13:44:16;100032.63;;;9.23;100.00
75640;BME280;64233;51.486;6.332;2023-03-24T13:46:42;100030.34;;;9.00;100.00
75640;BME280;64233;51.486;6.332;2023-03-24T13:49:13;100040.94;;;8.84;100.00
75640;BME280;64233;51.486;6.332;2023-03-24T13:51:42;100046.28;;;8.79;100.00
75640;BME280;64233;51.486;6.332;2023-03-24T13:54:22;100046.88;;;8.91;100.00
75640;BME280;64233;51.486;6.332;2023-03-24T13:56:55;100017.00;;;9.10;100.00
75640;BME280;64233;51.486;6.332;2023-03-24T14:02:20;100009.78;;;9.69;100.00
75640;BME280;64233;51.486;6.332;2023-03-24T14:10:21;100003.88;;;9.72;100.00
75640;BME280;64233;51.486;6.332;2023-03-24T14:15:28;100002.31;;;9.91;100.00
75640;BME280;64233;51.486;6.332;2023-03-24T14:17:55;100001.25;;;9.97;100.00
75640;BME280;64233;51.486;6.332;2023-03-24T14:20:32;100001.28;;;9.92;100.00
75640;BME280;64233;51.486;6.332;2023-03-24T14:22:58;99994.81;;;9.88;100.00
75640;BME280;64233;51.486;6.332;2023-03-24T14:25:31;99996.72;;;9.98;100.00
75640;BME280;64233;51.486;6.332;2023-03-24T14:28:10;99997.50;;;9.93;100.00
75640;BME280;64233;51.486;6.332;2023-03-24T14:31:07;99996.66;;;9.77;100.00
75640;BME280;64233;51.486;6.332;2023-03-24T14:33:37;100015.69;;;9.76;100.00
75640;BME280;64233;51.486;6.332;2023-03-24T14:36:03;100024.25;;;9.73;100.00
75640;BME280;64233;51.486;6.332;2023-03-24T14:38:35;100010.56;;;9.64;100.00
75640;BME280;64233;51.486;6.332;2023-03-24T14:41:07;100019.38;;;9.59;100.00
75640;BME280;64233;51.486;6.332;2023-03-24T14:49:19;99993.22;;;9.97;100.00
75640;BME280;64233;51.486;6.332;2023-03-24T14:54:40;99996.91;;;9.71;100.00
75640;BME280;64233;51.486;6.332;2023-03-24T14:57:26;99991.03;;;9.79;100.00
75640;BME280;64233;51.486;6.332;2023-03-24T15:00:14;99999.31;;;9.67;100.00
75640;BME280;64233;51.486;6.332;2023-03-24T15:02:45;100003.63;;;9.73;100.00
75640;BME280;64233;51.486;6.332;2023-03-24T15:16:17;100018.06;;;9.62;100.00
75640;BME280;64233;51.486;6.332;2023-03-24T15:18:50;100015.59;;;9.55;100.00